sensor_id;sensor_type;location;lat;lon;timestamp;temperature;humidity
52675;DHT22;38569;52.722;6.440;2022-11-15T00:01:40;7.80;99.90
52675;DHT22;38569;52.722;6.440;2022-11-15T00:04:06;7.80;99.90
52675;DHT22;38569;52.722;6.440;2022-11-15T00:06:32;7.90;99.90
52675;DHT22;38569;52.722;6.440;2022-11-15T00:08:58;7.90;99.90
52675;DHT22;38569;52.722;6.440;2022-11-15T00:11:24;7.90;99.90
52675;DHT22;38569;52.722;6.440;2022-11-15T00:13:49;7.90;99.90
52675;DHT22;38569;52.722;6.440;2022-11-15T00:16:15;8.00;99.90
52675;DHT22;38569;52.722;6.440;2022-11-15T00:18:40;8.00;99.90
52675;DHT22;38569;52.722;6.440;2022-11-15T00:21:09;8.00;99.90
52675;DHT22;38569;52.722;6.440;2022-11-15T00:23:35;8.00;99.90
52675;DHT22;38569;52.722;6.440;2022-11-15T00:26:01;8.00;99.90
52675;DHT22;38569;52.722;6.440;2022-11-15T00:28:27;8.00;99.90
52675;DHT22;38569;52.722;6.440;2022-11-15T00:30:52;8.00;99.90
52675;DHT22;38569;52.722;6.440;2022-11-15T00:33:18;8.00;99.90
52675;DHT22;38569;52.722;6.440;2022-11-15T00:35:44;8.10;99.90
52675;DHT22;38569;52.722;6.440;2022-11-15T00:38:09;8.00;99.90
52675;DHT22;38569;52.722;6.440;2022-11-15T00:40:35;8.00;99.90
52675;DHT22;38569;52.722;6.440;2022-11-15T00:43:00;8.00;99.90
52675;DHT22;38569;52.722;6.440;2022-11-15T00:45:26;8.00;99.90
52675;DHT22;38569;52.722;6.440;2022-11-15T00:47:52;8.00;99.90
52675;DHT22;38569;52.722;6.440;2022-11-15T00:50:17;8.00;99.90
52675;DHT22;38569;52.722;6.440;2022-11-15T00:52:43;8.00;99.90
52675;DHT22;38569;52.722;6.440;2022-11-15T00:55:18;8.00;99.90
52675;DHT22;38569;52.722;6.440;2022-11-15T00:57:44;8.00;99.90
52675;DHT22;38569;52.722;6.440;2022-11-15T01:00:10;8.00;99.90
52675;DHT22;38569;52.722;6.440;2022-11-15T01:02:36;8.00;99.90
52675;DHT22;38569;52.722;6.440;2022-11-15T01:05:02;8.00;99.90
52675;DHT22;38569;52.722;6.440;2022-11-15T01:07:27;8.00;99.90
52675;DHT22;38569;52.722;6.440;2022-11-15T01:09:53;8.00;99.90
52675;DHT22;38569;52.722;6.440;2022-11-15T01:12:19;8.00;99.90
52675;DHT22;38569;52.722;6.440;2022-11-15T01:14:44;8.00;99.90
52675;DHT22;38569;52.722;6.440;2022-11-15T01:17:10;8.10;99.90
52675;DHT22;38569;52.722;6.440;2022-11-15T01:19:35;8.10;99.90
52675;DHT22;38569;52.722;6.440;2022-11-15T01:22:01;8.10;99.90
52675;DHT22;38569;52.722;6.440;2022-11-15T01:24:27;8.10;99.90
52675;DHT22;38569;52.722;6.440;2022-11-15T01:26:52;8.10;99.90
52675;DHT22;38569;52.722;6.440;2022-11-15T01:29:18;8.20;99.90
52675;DHT22;38569;52.722;6.440;2022-11-15T01:31:43;8.10;99.90
52675;DHT22;38569;52.722;6.440;2022-11-15T01:34:09;8.20;99.90
52675;DHT22;38569;52.722;6.440;2022-11-15T01:36:34;8.20;99.90
52675;DHT22;38569;52.722;6.440;2022-11-15T01:39:00;8.20;99.90
52675;DHT22;38569;52.722;6.440;2022-11-15T01:41:27;8.20;99.90
52675;DHT22;38569;52.722;6.440;2022-11-15T01:43:54;8.20;99.90
52675;DHT22;38569;52.722;6.440;2022-11-15T01:48:55;8.10;99.90
52675;DHT22;38569;52.722;6.440;2022-11-15T01:51:22;8.20;99.90
52675;DHT22;38569;52.722;6.440;2022-11-15T01:53:51;8.10;99.90
52675;DHT22;38569;52.722;6.440;2022-11-15T01:56:20;8.10;99.90
52675;DHT22;38569;52.722;6.440;2022-11-15T01:58:46;8.10;99.90
52675;DHT22;38569;52.722;6.440;2022-11-15T02:01:13;8.20;99.90
52675;DHT22;38569;52.722;6.440;2022-11-15T02:03:44;8.20;99.90
52675;DHT22;38569;52.722;6.440;2022-11-15T02:06:11;8.20;99.90
52675;DHT22;38569;52.722;6.440;2022-11-15T02:08:37;8.30;99.90
52675;DHT22;38569;52.722;6.440;2022-11-15T02:11:04;8.30;99.90
52675;DHT22;38569;52.722;6.440;2022-11-15T02:13:30;8.30;99.90
52675;DHT22;38569;52.722;6.440;2022-11-15T02:18:37;8.30;99.90
52675;DHT22;38569;52.722;6.440;2022-11-15T02:26:49;8.40;99.90
52675;DHT22;38569;52.722;6.440;2022-11-15T02:34:35;8.40;99.90
52675;DHT22;38569;52.722;6.440;2022-11-15T02:42:14;8.50;99.90
52675;DHT22;38569;52.722;6.440;2022-11-15T02:45:03;8.50;99.90
52675;DHT22;38569;52.722;6.440;2022-11-15T02:47:30;8.50;99.90
52675;DHT22;38569;52.722;6.440;2022-11-15T02:49:58;8.50;99.90
52675;DHT22;38569;52.722;6.440;2022-11-15T02:52:25;8.50;99.90
52675;DHT22;38569;52.722;6.440;2022-11-15T02:54:55;8.50;99.90
52675;DHT22;38569;52.722;6.440;2022-11-15T02:57:25;8.60;99.90
52675;DHT22;38569;52.722;6.440;2022-11-15T03:00:05;8.60;99.90
52675;DHT22;38569;52.722;6.440;2022-11-15T03:10:32;8.60;99.90
52675;DHT22;38569;52.722;6.440;2022-11-15T03:15:57;8.70;99.90
52675;DHT22;38569;52.722;6.440;2022-11-15T03:18:32;8.70;99.90
52675;DHT22;38569;52.722;6.440;2022-11-15T03:20:59;8.70;99.90
52675;DHT22;38569;52.722;6.440;2022-11-15T03:23:26;8.70;99.90
52675;DHT22;38569;52.722;6.440;2022-11-15T03:25:54;8.70;99.90
52675;DHT22;38569;52.722;6.440;2022-11-15T03:28:22;8.70;99.90
52675;DHT22;38569;52.722;6.440;2022-11-15T03:30:48;8.70;99.90
52675;DHT22;38569;52.722;6.440;2022-11-15T03:33:15;8.70;99.90
52675;DHT22;38569;52.722;6.440;2022-11-15T03:35:42;8.70;99.90
52675;DHT22;38569;52.722;6.440;2022-11-15T03:38:25;8.70;99.90
52675;DHT22;38569;52.722;6.440;2022-11-15T03:43:36;8.70;99.90
52675;DHT22;38569;52.722;6.440;2022-11-15T03:46:06;8.80;99.90
52675;DHT22;38569;52.722;6.440;2022-11-15T03:48:37;8.70;99.90
52675;DHT22;38569;52.722;6.440;2022-11-15T03:51:05;8.80;99.90
52675;DHT22;38569;52.722;6.440;2022-11-15T03:53:31;8.80;99.90
52675;DHT22;38569;52.722;6.440;2022-11-15T03:55:57;8.90;99.90
52675;DHT22;38569;52.722;6.440;2022-11-15T03:58:22;8.90;99.90
52675;DHT22;38569;52.722;6.440;2022-11-15T04:00:48;8.80;99.90
52675;DHT22;38569;52.722;6.440;2022-11-15T04:03:14;8.90;99.90
52675;DHT22;38569;52.722;6.440;2022-11-15T04:05:39;8.90;99.90
52675;DHT22;38569;52.722;6.440;2022-11-15T04:08:05;8.90;99.90
52675;DHT22;38569;52.722;6.440;2022-11-15T04:10:30;8.90;99.90
52675;DHT22;38569;52.722;6.440;2022-11-15T04:12:56;8.90;99.90
52675;DHT22;38569;52.722;6.440;2022-11-15T04:15:22;9.00;99.90
52675;DHT22;38569;52.722;6.440;2022-11-15T04:17:55;9.00;99.90
52675;DHT22;38569;52.722;6.440;2022-11-15T04:20:25;9.00;99.90
52675;DHT22;38569;52.722;6.440;2022-11-15T04:23:11;9.10;99.90
52675;DHT22;38569;52.722;6.440;2022-11-15T04:25:58;9.10;99.90
52675;DHT22;38569;52.722;6.440;2022-11-15T04:28:24;9.10;99.90
52675;DHT22;38569;52.722;6.440;2022-11-15T04:30:50;9.10;99.90
52675;DHT22;38569;52.722;6.440;2022-11-15T04:33:15;9.20;99.90
52675;DHT22;38569;52.722;6.440;2022-11-15T04:35:43;9.20;99.90
52675;DHT22;38569;52.722;6.440;2022-11-15T04:38:29;9.30;99.90
52675;DHT22;38569;52.722;6.440;2022-11-15T04:40:55;9.30;99.90
52675;DHT22;38569;52.722;6.440;2022-11-15T04:43:20;9.40;99.90
52675;DHT22;38569;52.722;6.440;2022-11-15T04:45:46;9.40;99.90
52675;DHT22;38569;52.722;6.440;2022-11-15T04:48:11;9.50;99.90
52675;DHT22;38569;52.722;6.440;2022-11-15T04:50:37;9.50;99.90
52675;DHT22;38569;52.722;6.440;2022-11-15T04:53:03;9.60;99.90
52675;DHT22;38569;52.722;6.440;2022-11-15T04:55:28;9.60;99.90
52675;DHT22;38569;52.722;6.440;2022-11-15T04:57:59;9.70;99.90
52675;DHT22;38569;52.722;6.440;2022-11-15T05:00:25;9.70;99.90
52675;DHT22;38569;52.722;6.440;2022-11-15T05:02:51;9.70;99.90
52675;DHT22;38569;52.722;6.440;2022-11-15T05:05:35;9.70;99.90
52675;DHT22;38569;52.722;6.440;2022-11-15T05:08:01;9.80;99.90
52675;DHT22;38569;52.722;6.440;2022-11-15T05:10:27;9.80;99.90
52675;DHT22;38569;52.722;6.440;2022-11-15T05:12:52;9.80;99.90
52675;DHT22;38569;52.722;6.440;2022-11-15T05:15:18;9.80;99.90
52675;DHT22;38569;52.722;6.440;2022-11-15T05:17:44;9.80;99.90
52675;DHT22;38569;52.722;6.440;2022-11-15T05:20:10;9.80;99.90
52675;DHT22;38569;52.722;6.440;2022-11-15T05:22:36;9.80;99.90
52675;DHT22;38569;52.722;6.440;2022-11-15T05:25:01;9.90;99.90
52675;DHT22;38569;52.722;6.440;2022-11-15T05:27:27;9.90;99.90
52675;DHT22;38569;52.722;6.440;2022-11-15T05:29:53;9.90;99.90
52675;DHT22;38569;52.722;6.440;2022-11-15T05:32:18;9.90;99.90
52675;DHT22;38569;52.722;6.440;2022-11-15T05:34:44;9.90;99.90
52675;DHT22;38569;52.722;6.440;2022-11-15T05:37:10;10.00;99.90
52675;DHT22;38569;52.722;6.440;2022-11-15T05:39:36;9.90;99.90
52675;DHT22;38569;52.722;6.440;2022-11-15T05:42:04;9.90;99.90
52675;DHT22;38569;52.722;6.440;2022-11-15T05:44:31;10.00;99.90
52675;DHT22;38569;52.722;6.440;2022-11-15T05:46:57;10.00;99.90
52675;DHT22;38569;52.722;6.440;2022-11-15T05:49:24;10.00;99.90
52675;DHT22;38569;52.722;6.440;2022-11-15T05:51:50;10.00;99.90
52675;DHT22;38569;52.722;6.440;2022-11-15T05:54:16;10.00;99.90
52675;DHT22;38569;52.722;6.440;2022-11-15T05:56:42;10.00;99.90
52675;DHT22;38569;52.722;6.440;2022-11-15T05:59:09;10.10;99.90
52675;DHT22;38569;52.722;6.440;2022-11-15T06:01:35;10.20;99.90
52675;DHT22;38569;52.722;6.440;2022-11-15T06:04:00;10.20;99.90
52675;DHT22;38569;52.722;6.440;2022-11-15T06:06:27;10.20;99.90
52675;DHT22;38569;52.722;6.440;2022-11-15T06:08:52;10.20;99.90
52675;DHT22;38569;52.722;6.440;2022-11-15T06:11:18;10.30;99.90
52675;DHT22;38569;52.722;6.440;2022-11-15T06:13:44;10.30;99.90
52675;DHT22;38569;52.722;6.440;2022-11-15T06:16:09;10.40;99.90
52675;DHT22;38569;52.722;6.440;2022-11-15T06:18:35;10.40;99.90
52675;DHT22;38569;52.722;6.440;2022-11-15T06:21:01;10.40;99.90
52675;DHT22;38569;52.722;6.440;2022-11-15T06:23:27;10.50;99.90
52675;DHT22;38569;52.722;6.440;2022-11-15T06:25:53;10.60;99.90
52675;DHT22;38569;52.722;6.440;2022-11-15T06:28:18;10.50;99.90
52675;DHT22;38569;52.722;6.440;2022-11-15T06:30:44;10.50;99.90
52675;DHT22;38569;52.722;6.440;2022-11-15T06:33:09;10.50;99.90
52675;DHT22;38569;52.722;6.440;2022-11-15T06:35:35;10.60;99.90
52675;DHT22;38569;52.722;6.440;2022-11-15T06:38:02;10.60;99.90
52675;DHT22;38569;52.722;6.440;2022-11-15T06:40:28;10.60;99.90
52675;DHT22;38569;52.722;6.440;2022-11-15T06:42:57;10.60;99.90
52675;DHT22;38569;52.722;6.440;2022-11-15T06:45:23;10.60;99.90
52675;DHT22;38569;52.722;6.440;2022-11-15T06:47:49;10.60;99.90
52675;DHT22;38569;52.722;6.440;2022-11-15T06:50:14;10.70;99.90
52675;DHT22;38569;52.722;6.440;2022-11-15T06:52:40;10.70;99.90
52675;DHT22;38569;52.722;6.440;2022-11-15T06:55:06;10.70;99.90
52675;DHT22;38569;52.722;6.440;2022-11-15T06:57:31;10.70;99.90
52675;DHT22;38569;52.722;6.440;2022-11-15T06:59:57;10.70;99.90
52675;DHT22;38569;52.722;6.440;2022-11-15T07:02:23;10.70;99.90
52675;DHT22;38569;52.722;6.440;2022-11-15T07:04:48;10.70;99.90
52675;DHT22;38569;52.722;6.440;2022-11-15T07:07:14;10.70;99.90
52675;DHT22;38569;52.722;6.440;2022-11-15T07:09:40;10.80;99.90
52675;DHT22;38569;52.722;6.440;2022-11-15T07:12:05;10.80;99.90
52675;DHT22;38569;52.722;6.440;2022-11-15T07:14:31;10.80;99.90
52675;DHT22;38569;52.722;6.440;2022-11-15T07:16:57;10.80;99.90
52675;DHT22;38569;52.722;6.440;2022-11-15T07:19:22;10.80;99.90
52675;DHT22;38569;52.722;6.440;2022-11-15T07:21:48;10.80;99.90
52675;DHT22;38569;52.722;6.440;2022-11-15T07:24:14;10.90;99.90
52675;DHT22;38569;52.722;6.440;2022-11-15T07:26:39;10.90;99.90
52675;DHT22;38569;52.722;6.440;2022-11-15T07:29:05;10.90;99.90
52675;DHT22;38569;52.722;6.440;2022-11-15T07:31:31;11.00;99.90
52675;DHT22;38569;52.722;6.440;2022-11-15T07:33:56;11.00;99.90
52675;DHT22;38569;52.722;6.440;2022-11-15T07:36:22;11.00;99.90
52675;DHT22;38569;52.722;6.440;2022-11-15T07:38:48;11.00;99.90
52675;DHT22;38569;52.722;6.440;2022-11-15T07:41:13;11.10;99.90
52675;DHT22;38569;52.722;6.440;2022-11-15T07:43:39;11.00;99.90
52675;DHT22;38569;52.722;6.440;2022-11-15T07:46:05;11.10;99.90
52675;DHT22;38569;52.722;6.440;2022-11-15T07:48:34;11.10;99.90
52675;DHT22;38569;52.722;6.440;2022-11-15T07:51:00;11.10;99.90
52675;DHT22;38569;52.722;6.440;2022-11-15T07:53:26;11.10;99.90
52675;DHT22;38569;52.722;6.440;2022-11-15T07:55:51;11.20;99.90
52675;DHT22;38569;52.722;6.440;2022-11-15T07:58:18;11.20;99.90
52675;DHT22;38569;52.722;6.440;2022-11-15T08:00:44;11.20;99.90
52675;DHT22;38569;52.722;6.440;2022-11-15T08:03:14;11.20;99.90
52675;DHT22;38569;52.722;6.440;2022-11-15T08:05:40;11.20;99.90
52675;DHT22;38569;52.722;6.440;2022-11-15T08:08:07;11.30;99.90
52675;DHT22;38569;52.722;6.440;2022-11-15T08:10:33;11.30;99.90
52675;DHT22;38569;52.722;6.440;2022-11-15T08:15:25;11.30;99.90
52675;DHT22;38569;52.722;6.440;2022-11-15T08:17:55;11.30;99.90
52675;DHT22;38569;52.722;6.440;2022-11-15T08:20:20;11.30;99.90
52675;DHT22;38569;52.722;6.440;2022-11-15T08:22:46;11.40;99.90
52675;DHT22;38569;52.722;6.440;2022-11-15T08:25:12;11.40;99.90
52675;DHT22;38569;52.722;6.440;2022-11-15T08:27:38;11.40;99.90
52675;DHT22;38569;52.722;6.440;2022-11-15T08:30:03;11.50;99.90
52675;DHT22;38569;52.722;6.440;2022-11-15T08:32:30;11.50;99.90
52675;DHT22;38569;52.722;6.440;2022-11-15T08:34:55;11.60;99.90
52675;DHT22;38569;52.722;6.440;2022-11-15T08:37:21;11.60;99.90
52675;DHT22;38569;52.722;6.440;2022-11-15T08:39:46;11.60;99.90
52675;DHT22;38569;52.722;6.440;2022-11-15T08:42:12;11.60;99.90
52675;DHT22;38569;52.722;6.440;2022-11-15T08:44:40;11.60;99.90
52675;DHT22;38569;52.722;6.440;2022-11-15T08:47:05;11.70;99.90
52675;DHT22;38569;52.722;6.440;2022-11-15T08:49:31;11.70;99.90
52675;DHT22;38569;52.722;6.440;2022-11-15T08:51:56;11.70;99.90
52675;DHT22;38569;52.722;6.440;2022-11-15T08:54:22;11.80;99.90
52675;DHT22;38569;52.722;6.440;2022-11-15T08:56:48;11.80;99.90
52675;DHT22;38569;52.722;6.440;2022-11-15T08:59:13;11.80;99.90
52675;DHT22;38569;52.722;6.440;2022-11-15T09:01:39;11.80;99.90
52675;DHT22;38569;52.722;6.440;2022-11-15T09:04:04;11.90;99.90
52675;DHT22;38569;52.722;6.440;2022-11-15T09:06:30;11.80;99.90
52675;DHT22;38569;52.722;6.440;2022-11-15T09:08:56;11.90;99.90
52675;DHT22;38569;52.722;6.440;2022-11-15T09:11:22;11.90;99.90
52675;DHT22;38569;52.722;6.440;2022-11-15T09:13:49;11.90;99.90
52675;DHT22;38569;52.722;6.440;2022-11-15T09:16:14;11.90;99.90
52675;DHT22;38569;52.722;6.440;2022-11-15T09:18:40;11.90;99.90
52675;DHT22;38569;52.722;6.440;2022-11-15T09:21:06;12.00;99.90
52675;DHT22;38569;52.722;6.440;2022-11-15T09:23:32;12.00;99.90
52675;DHT22;38569;52.722;6.440;2022-11-15T09:25:59;12.10;99.90
52675;DHT22;38569;52.722;6.440;2022-11-15T09:28:25;12.10;99.90
52675;DHT22;38569;52.722;6.440;2022-11-15T09:30:50;12.20;99.90
52675;DHT22;38569;52.722;6.440;2022-11-15T09:33:16;12.20;99.90
52675;DHT22;38569;52.722;6.440;2022-11-15T09:35:42;12.20;99.90
52675;DHT22;38569;52.722;6.440;2022-11-15T09:38:08;12.30;99.90
52675;DHT22;38569;52.722;6.440;2022-11-15T09:40:35;12.30;99.90
52675;DHT22;38569;52.722;6.440;2022-11-15T09:51:01;12.30;99.90
52675;DHT22;38569;52.722;6.440;2022-11-15T09:53:34;12.30;99.90
52675;DHT22;38569;52.722;6.440;2022-11-15T09:56:01;12.30;99.90
52675;DHT22;38569;52.722;6.440;2022-11-15T10:00:56;12.40;99.90
52675;DHT22;38569;52.722;6.440;2022-11-15T10:03:28;12.30;99.90
52675;DHT22;38569;52.722;6.440;2022-11-15T10:06:00;12.30;99.90
52675;DHT22;38569;52.722;6.440;2022-11-15T10:11:15;12.30;99.90
52675;DHT22;38569;52.722;6.440;2022-11-15T10:13:41;12.30;99.90
52675;DHT22;38569;52.722;6.440;2022-11-15T10:18:51;12.30;99.90
52675;DHT22;38569;52.722;6.440;2022-11-15T10:21:23;12.30;99.90
52675;DHT22;38569;52.722;6.440;2022-11-15T10:23:50;12.40;99.90
52675;DHT22;38569;52.722;6.440;2022-11-15T10:26:16;12.50;99.90
52675;DHT22;38569;52.722;6.440;2022-11-15T10:28:42;12.60;99.90
52675;DHT22;38569;52.722;6.440;2022-11-15T10:31:22;12.70;99.90
52675;DHT22;38569;52.722;6.440;2022-11-15T10:33:48;12.90;99.90
52675;DHT22;38569;52.722;6.440;2022-11-15T10:36:17;13.20;99.90
52675;DHT22;38569;52.722;6.440;2022-11-15T10:38:51;13.50;99.90
52675;DHT22;38569;52.722;6.440;2022-11-15T10:44:41;14.60;99.90
52675;DHT22;38569;52.722;6.440;2022-11-15T10:46:39;15.00;99.90
52675;DHT22;38569;52.722;6.440;2022-11-15T10:49:12;15.20;99.90
52675;DHT22;38569;52.722;6.440;2022-11-15T10:51:42;15.40;99.90
52675;DHT22;38569;52.722;6.440;2022-11-15T10:54:10;15.30;99.90
52675;DHT22;38569;52.722;6.440;2022-11-15T10:56:36;15.20;99.90
52675;DHT22;38569;52.722;6.440;2022-11-15T10:59:01;14.80;99.90
52675;DHT22;38569;52.722;6.440;2022-11-15T11:01:28;14.60;99.90
52675;DHT22;38569;52.722;6.440;2022-11-15T11:06:25;13.70;99.90
52675;DHT22;38569;52.722;6.440;2022-11-15T11:08:54;13.70;99.90
52675;DHT22;38569;52.722;6.440;2022-11-15T11:11:20;14.00;99.90
52675;DHT22;38569;52.722;6.440;2022-11-15T11:13:46;14.30;99.90
52675;DHT22;38569;52.722;6.440;2022-11-15T11:21:49;14.30;99.90
52675;DHT22;38569;52.722;6.440;2022-11-15T11:24:16;14.00;99.90
52675;DHT22;38569;52.722;6.440;2022-11-15T11:37:38;14.40;99.90
52675;DHT22;38569;52.722;6.440;2022-11-15T11:40:10;14.10;99.90
52675;DHT22;38569;52.722;6.440;2022-11-15T11:50:25;14.10;99.90
52675;DHT22;38569;52.722;6.440;2022-11-15T11:55:19;14.30;99.90
52675;DHT22;38569;52.722;6.440;2022-11-15T12:02:39;14.30;99.90
52675;DHT22;38569;52.722;6.440;2022-11-15T12:05:22;14.20;99.90
52675;DHT22;38569;52.722;6.440;2022-11-15T12:07:48;14.20;99.90
52675;DHT22;38569;52.722;6.440;2022-11-15T12:15:27;14.50;99.90
52675;DHT22;38569;52.722;6.440;2022-11-15T12:17:55;14.70;99.90
52675;DHT22;38569;52.722;6.440;2022-11-15T12:20:25;15.20;99.90
52675;DHT22;38569;52.722;6.440;2022-11-15T12:25:23;14.90;99.90
52675;DHT22;38569;52.722;6.440;2022-11-15T12:30:15;14.60;99.90
52675;DHT22;38569;52.722;6.440;2022-11-15T12:32:55;14.50;99.90
52675;DHT22;38569;52.722;6.440;2022-11-15T12:35:41;14.30;99.90
52675;DHT22;38569;52.722;6.440;2022-11-15T12:38:11;14.20;99.90
52675;DHT22;38569;52.722;6.440;2022-11-15T12:40:37;14.20;99.90
52675;DHT22;38569;52.722;6.440;2022-11-15T12:43:05;14.10;99.90
52675;DHT22;38569;52.722;6.440;2022-11-15T12:51:15;14.00;99.90
52675;DHT22;38569;52.722;6.440;2022-11-15T12:53:34;14.00;99.90
52675;DHT22;38569;52.722;6.440;2022-11-15T12:58:40;13.90;99.90
52675;DHT22;38569;52.722;6.440;2022-11-15T13:01:06;13.80;99.90
52675;DHT22;38569;52.722;6.440;2022-11-15T13:03:32;13.80;99.90
52675;DHT22;38569;52.722;6.440;2022-11-15T13:05:59;13.70;99.90
52675;DHT22;38569;52.722;6.440;2022-11-15T13:08:42;13.70;99.90
52675;DHT22;38569;52.722;6.440;2022-11-15T13:13:53;13.60;99.90
52675;DHT22;38569;52.722;6.440;2022-11-15T13:16:20;13.70;99.90
52675;DHT22;38569;52.722;6.440;2022-11-15T13:18:52;13.80;99.90
52675;DHT22;38569;52.722;6.440;2022-11-15T13:21:20;13.80;99.90
52675;DHT22;38569;52.722;6.440;2022-11-15T13:24:09;13.80;99.90
52675;DHT22;38569;52.722;6.440;2022-11-15T13:26:35;13.80;99.90
52675;DHT22;38569;52.722;6.440;2022-11-15T13:29:03;13.80;99.90
52675;DHT22;38569;52.722;6.440;2022-11-15T13:31:40;13.80;99.90
52675;DHT22;38569;52.722;6.440;2022-11-15T13:34:49;13.70;99.90
52675;DHT22;38569;52.722;6.440;2022-11-15T13:36:58;13.70;99.90
52675;DHT22;38569;52.722;6.440;2022-11-15T13:39:31;13.80;99.90
52675;DHT22;38569;52.722;6.440;2022-11-15T13:41:57;13.80;99.90
52675;DHT22;38569;52.722;6.440;2022-11-15T13:44:25;13.70;99.90
52675;DHT22;38569;52.722;6.440;2022-11-15T13:49:30;13.60;99.90
52675;DHT22;38569;52.722;6.440;2022-11-15T13:51:56;13.60;99.90
52675;DHT22;38569;52.722;6.440;2022-11-15T13:57:20;13.50;99.90
52675;DHT22;38569;52.722;6.440;2022-11-15T13:59:47;13.40;99.90
52675;DHT22;38569;52.722;6.440;2022-11-15T14:02:15;13.30;99.90
52675;DHT22;38569;52.722;6.440;2022-11-15T14:04:53;13.30;99.90
52675;DHT22;38569;52.722;6.440;2022-11-15T14:07:20;13.20;99.90
52675;DHT22;38569;52.722;6.440;2022-11-15T14:09:46;13.20;99.90
52675;DHT22;38569;52.722;6.440;2022-11-15T14:14:50;13.10;99.90
52675;DHT22;38569;52.722;6.440;2022-11-15T14:17:19;13.00;99.90
52675;DHT22;38569;52.722;6.440;2022-11-15T14:19:45;13.00;99.90
52675;DHT22;38569;52.722;6.440;2022-11-15T14:22:12;12.90;99.90
52675;DHT22;38569;52.722;6.440;2022-11-15T14:24:38;12.90;99.90
52675;DHT22;38569;52.722;6.440;2022-11-15T14:29:44;12.90;99.90
52675;DHT22;38569;52.722;6.440;2022-11-15T14:32:20;12.80;99.90
52675;DHT22;38569;52.722;6.440;2022-11-15T14:34:59;12.80;99.90
52675;DHT22;38569;52.722;6.440;2022-11-15T14:37:32;12.80;99.90
52675;DHT22;38569;52.722;6.440;2022-11-15T14:40:03;12.80;99.90
52675;DHT22;38569;52.722;6.440;2022-11-15T14:42:29;12.80;99.90
52675;DHT22;38569;52.722;6.440;2022-11-15T14:44:54;12.80;99.90
52675;DHT22;38569;52.722;6.440;2022-11-15T14:47:20;12.70;99.90
52675;DHT22;38569;52.722;6.440;2022-11-15T14:49:46;12.70;99.90
52675;DHT22;38569;52.722;6.440;2022-11-15T14:52:31;12.70;99.90
52675;DHT22;38569;52.722;6.440;2022-11-15T14:55:01;12.70;99.90
52675;DHT22;38569;52.722;6.440;2022-11-15T14:57:27;12.70;99.90
52675;DHT22;38569;52.722;6.440;2022-11-15T14:59:53;12.70;99.90
52675;DHT22;38569;52.722;6.440;2022-11-15T15:02:20;12.70;99.90
52675;DHT22;38569;52.722;6.440;2022-11-15T15:04:47;12.60;99.90
52675;DHT22;38569;52.722;6.440;2022-11-15T15:07:12;12.60;99.90
52675;DHT22;38569;52.722;6.440;2022-11-15T15:09:38;12.60;99.90
52675;DHT22;38569;52.722;6.440;2022-11-15T15:12:05;12.60;99.90
52675;DHT22;38569;52.722;6.440;2022-11-15T15:14:32;12.60;99.90
52675;DHT22;38569;52.722;6.440;2022-11-15T15:16:57;12.60;99.90
52675;DHT22;38569;52.722;6.440;2022-11-15T15:19:23;12.50;99.90
52675;DHT22;38569;52.722;6.440;2022-11-15T15:21:49;12.50;99.90
52675;DHT22;38569;52.722;6.440;2022-11-15T15:24:14;12.40;99.90
52675;DHT22;38569;52.722;6.440;2022-11-15T15:26:40;12.40;99.90
52675;DHT22;38569;52.722;6.440;2022-11-15T15:29:05;12.30;99.90
52675;DHT22;38569;52.722;6.440;2022-11-15T15:31:31;12.30;99.90
52675;DHT22;38569;52.722;6.440;2022-11-15T15:33:58;12.10;99.90
52675;DHT22;38569;52.722;6.440;2022-11-15T15:36:23;12.00;99.90
52675;DHT22;38569;52.722;6.440;2022-11-15T15:38:49;12.00;99.90
52675;DHT22;38569;52.722;6.440;2022-11-15T15:41:15;11.90;99.90
52675;DHT22;38569;52.722;6.440;2022-11-15T15:43:41;11.70;99.90
52675;DHT22;38569;52.722;6.440;2022-11-15T15:46:24;11.70;99.90
52675;DHT22;38569;52.722;6.440;2022-11-15T15:48:50;11.60;99.90
52675;DHT22;38569;52.722;6.440;2022-11-15T15:51:16;11.50;99.90
52675;DHT22;38569;52.722;6.440;2022-11-15T15:53:41;11.40;99.90
52675;DHT22;38569;52.722;6.440;2022-11-15T15:56:07;11.30;99.90
52675;DHT22;38569;52.722;6.440;2022-11-15T15:58:33;11.20;99.90
52675;DHT22;38569;52.722;6.440;2022-11-15T16:00:59;11.20;99.90
52675;DHT22;38569;52.722;6.440;2022-11-15T16:03:24;11.10;99.90
52675;DHT22;38569;52.722;6.440;2022-11-15T16:05:50;11.00;99.90
52675;DHT22;38569;52.722;6.440;2022-11-15T16:08:20;11.00;99.90
52675;DHT22;38569;52.722;6.440;2022-11-15T16:10:46;11.00;99.90
52675;DHT22;38569;52.722;6.440;2022-11-15T16:13:11;11.00;99.90
52675;DHT22;38569;52.722;6.440;2022-11-15T16:15:37;11.00;99.90
52675;DHT22;38569;52.722;6.440;2022-11-15T16:18:03;11.10;99.90
52675;DHT22;38569;52.722;6.440;2022-11-15T16:20:36;11.10;99.90
52675;DHT22;38569;52.722;6.440;2022-11-15T16:23:03;11.20;99.90
52675;DHT22;38569;52.722;6.440;2022-11-15T16:25:29;11.20;99.90
52675;DHT22;38569;52.722;6.440;2022-11-15T16:27:55;11.20;99.90
52675;DHT22;38569;52.722;6.440;2022-11-15T16:30:21;11.30;99.90
52675;DHT22;38569;52.722;6.440;2022-11-15T16:32:47;11.30;99.90
52675;DHT22;38569;52.722;6.440;2022-11-15T16:35:13;11.30;99.90
52675;DHT22;38569;52.722;6.440;2022-11-15T16:37:39;11.40;99.90
52675;DHT22;38569;52.722;6.440;2022-11-15T16:40:48;11.40;99.90
52675;DHT22;38569;52.722;6.440;2022-11-15T16:42:58;11.40;99.90
52675;DHT22;38569;52.722;6.440;2022-11-15T16:45:25;11.50;99.90
52675;DHT22;38569;52.722;6.440;2022-11-15T16:47:55;11.50;99.90
52675;DHT22;38569;52.722;6.440;2022-11-15T16:52:52;11.50;99.90
52675;DHT22;38569;52.722;6.440;2022-11-15T16:55:19;11.60;99.90
52675;DHT22;38569;52.722;6.440;2022-11-15T16:57:44;11.60;99.90
52675;DHT22;38569;52.722;6.440;2022-11-15T17:00:13;11.60;99.90
52675;DHT22;38569;52.722;6.440;2022-11-15T17:02:42;11.60;99.90
52675;DHT22;38569;52.722;6.440;2022-11-15T17:05:09;11.70;99.90
52675;DHT22;38569;52.722;6.440;2022-11-15T17:07:34;11.70;99.90
52675;DHT22;38569;52.722;6.440;2022-11-15T17:10:00;11.70;99.90
52675;DHT22;38569;52.722;6.440;2022-11-15T17:12:25;11.70;99.90
52675;DHT22;38569;52.722;6.440;2022-11-15T17:14:51;11.70;99.90
52675;DHT22;38569;52.722;6.440;2022-11-15T17:17:17;11.70;99.90
52675;DHT22;38569;52.722;6.440;2022-11-15T17:19:42;11.70;99.90
52675;DHT22;38569;52.722;6.440;2022-11-15T17:22:08;11.70;99.90
52675;DHT22;38569;52.722;6.440;2022-11-15T17:24:33;11.70;99.90
52675;DHT22;38569;52.722;6.440;2022-11-15T17:26:59;11.70;99.90
52675;DHT22;38569;52.722;6.440;2022-11-15T17:29:24;11.70;99.90
52675;DHT22;38569;52.722;6.440;2022-11-15T17:31:50;11.70;99.90
52675;DHT22;38569;52.722;6.440;2022-11-15T17:34:15;11.80;99.90
52675;DHT22;38569;52.722;6.440;2022-11-15T17:36:41;11.80;99.90
52675;DHT22;38569;52.722;6.440;2022-11-15T17:39:07;11.70;99.90
52675;DHT22;38569;52.722;6.440;2022-11-15T17:41:32;11.80;99.90